sensor_id;sensor_type;location;lat;lon;timestamp;temperature;humidity
61398;DHT22;47267;48.130;-2.040;2023-12-20T00:00:26;19.50;51.40
61398;DHT22;47267;48.130;-2.040;2023-12-20T00:02:51;19.50;51.40
61398;DHT22;47267;48.130;-2.040;2023-12-20T00:05:17;19.50;51.40
61398;DHT22;47267;48.130;-2.040;2023-12-20T00:07:43;19.50;51.40
61398;DHT22;47267;48.130;-2.040;2023-12-20T00:10:09;19.50;51.40
61398;DHT22;47267;48.130;-2.040;2023-12-20T00:12:35;19.50;51.40
61398;DHT22;47267;48.130;-2.040;2023-12-20T00:15:01;19.50;51.40
61398;DHT22;47267;48.130;-2.040;2023-12-20T00:17:27;19.50;51.40
61398;DHT22;47267;48.130;-2.040;2023-12-20T00:19:52;19.40;51.40
61398;DHT22;47267;48.130;-2.040;2023-12-20T00:22:18;19.50;51.40
61398;DHT22;47267;48.130;-2.040;2023-12-20T00:24:43;19.50;51.40
61398;DHT22;47267;48.130;-2.040;2023-12-20T00:27:09;19.40;51.40
61398;DHT22;47267;48.130;-2.040;2023-12-20T00:29:35;19.40;51.40
61398;DHT22;47267;48.130;-2.040;2023-12-20T00:32:00;19.40;51.40
61398;DHT22;47267;48.130;-2.040;2023-12-20T00:34:26;19.40;51.40
61398;DHT22;47267;48.130;-2.040;2023-12-20T00:36:52;19.40;51.40
61398;DHT22;47267;48.130;-2.040;2023-12-20T00:39:17;19.40;51.40
61398;DHT22;47267;48.130;-2.040;2023-12-20T00:41:43;19.40;51.40
61398;DHT22;47267;48.130;-2.040;2023-12-20T00:44:09;19.40;51.40
61398;DHT22;47267;48.130;-2.040;2023-12-20T00:46:34;19.40;51.40
61398;DHT22;47267;48.130;-2.040;2023-12-20T00:49:00;19.40;51.40
61398;DHT22;47267;48.130;-2.040;2023-12-20T00:51:26;19.40;51.40
61398;DHT22;47267;48.130;-2.040;2023-12-20T00:53:51;19.40;51.30
61398;DHT22;47267;48.130;-2.040;2023-12-20T00:56:20;19.40;51.40
61398;DHT22;47267;48.130;-2.040;2023-12-20T00:58:46;19.40;51.40
61398;DHT22;47267;48.130;-2.040;2023-12-20T01:01:11;19.40;51.40
61398;DHT22;47267;48.130;-2.040;2023-12-20T01:03:38;19.40;51.40
61398;DHT22;47267;48.130;-2.040;2023-12-20T01:06:04;19.40;51.40
61398;DHT22;47267;48.130;-2.040;2023-12-20T01:08:30;19.40;51.40
61398;DHT22;47267;48.130;-2.040;2023-12-20T01:10:56;19.30;51.30
61398;DHT22;47267;48.130;-2.040;2023-12-20T01:13:22;19.40;51.40
61398;DHT22;47267;48.130;-2.040;2023-12-20T01:15:47;19.30;51.40
61398;DHT22;47267;48.130;-2.040;2023-12-20T01:18:14;19.30;51.30
61398;DHT22;47267;48.130;-2.040;2023-12-20T01:20:40;19.30;51.30
61398;DHT22;47267;48.130;-2.040;2023-12-20T01:23:05;19.30;51.30
61398;DHT22;47267;48.130;-2.040;2023-12-20T01:25:31;19.30;51.30
61398;DHT22;47267;48.130;-2.040;2023-12-20T01:27:57;19.30;51.30
61398;DHT22;47267;48.130;-2.040;2023-12-20T01:30:23;19.30;51.30
61398;DHT22;47267;48.130;-2.040;2023-12-20T01:32:49;19.30;51.30
61398;DHT22;47267;48.130;-2.040;2023-12-20T01:35:15;19.30;51.30
61398;DHT22;47267;48.130;-2.040;2023-12-20T01:37:40;19.30;51.30
61398;DHT22;47267;48.130;-2.040;2023-12-20T01:40:06;19.30;51.30
61398;DHT22;47267;48.130;-2.040;2023-12-20T01:42:33;19.30;51.30
61398;DHT22;47267;48.130;-2.040;2023-12-20T01:44:59;19.30;51.30
61398;DHT22;47267;48.130;-2.040;2023-12-20T01:47:25;19.30;51.30
61398;DHT22;47267;48.130;-2.040;2023-12-20T01:49:52;19.30;51.30
61398;DHT22;47267;48.130;-2.040;2023-12-20T01:52:19;19.30;51.30
61398;DHT22;47267;48.130;-2.040;2023-12-20T01:54:45;19.20;51.30
61398;DHT22;47267;48.130;-2.040;2023-12-20T01:57:12;19.20;51.30
61398;DHT22;47267;48.130;-2.040;2023-12-20T01:59:39;19.20;51.30
61398;DHT22;47267;48.130;-2.040;2023-12-20T02:02:05;19.30;51.30
61398;DHT22;47267;48.130;-2.040;2023-12-20T02:04:33;19.20;51.30
61398;DHT22;47267;48.130;-2.040;2023-12-20T02:06:59;19.20;51.30
61398;DHT22;47267;48.130;-2.040;2023-12-20T02:09:25;19.20;51.20
61398;DHT22;47267;48.130;-2.040;2023-12-20T02:11:51;19.20;51.30
61398;DHT22;47267;48.130;-2.040;2023-12-20T02:14:16;19.20;51.30
61398;DHT22;47267;48.130;-2.040;2023-12-20T02:16:42;19.20;51.30
61398;DHT22;47267;48.130;-2.040;2023-12-20T02:19:14;19.20;51.20
61398;DHT22;47267;48.130;-2.040;2023-12-20T02:21:40;19.20;51.30
61398;DHT22;47267;48.130;-2.040;2023-12-20T02:24:06;19.20;51.20
61398;DHT22;47267;48.130;-2.040;2023-12-20T02:26:34;19.20;51.30
61398;DHT22;47267;48.130;-2.040;2023-12-20T02:29:00;19.20;51.30
61398;DHT22;47267;48.130;-2.040;2023-12-20T02:31:26;19.20;51.30
61398;DHT22;47267;48.130;-2.040;2023-12-20T02:33:52;19.20;51.20
61398;DHT22;47267;48.130;-2.040;2023-12-20T02:36:18;19.20;51.20
61398;DHT22;47267;48.130;-2.040;2023-12-20T02:38:43;19.20;51.30
61398;DHT22;47267;48.130;-2.040;2023-12-20T02:41:09;19.20;51.20
61398;DHT22;47267;48.130;-2.040;2023-12-20T02:43:35;19.20;51.30
61398;DHT22;47267;48.130;-2.040;2023-12-20T02:46:00;19.10;51.20
61398;DHT22;47267;48.130;-2.040;2023-12-20T02:48:26;19.10;51.20
61398;DHT22;47267;48.130;-2.040;2023-12-20T02:50:52;19.20;51.30
61398;DHT22;47267;48.130;-2.040;2023-12-20T02:53:17;19.10;51.20
61398;DHT22;47267;48.130;-2.040;2023-12-20T02:55:43;19.20;51.30
61398;DHT22;47267;48.130;-2.040;2023-12-20T02:58:09;19.10;51.20
61398;DHT22;47267;48.130;-2.040;2023-12-20T03:00:34;19.10;51.20
61398;DHT22;47267;48.130;-2.040;2023-12-20T03:03:00;19.10;51.20
61398;DHT22;47267;48.130;-2.040;2023-12-20T03:05:26;19.10;51.20
61398;DHT22;47267;48.130;-2.040;2023-12-20T03:07:51;19.10;51.30
61398;DHT22;47267;48.130;-2.040;2023-12-20T03:10:18;19.10;51.20
61398;DHT22;47267;48.130;-2.040;2023-12-20T03:12:44;19.10;51.20
61398;DHT22;47267;48.130;-2.040;2023-12-20T03:15:10;19.10;51.20
61398;DHT22;47267;48.130;-2.040;2023-12-20T03:17:36;19.10;51.20
61398;DHT22;47267;48.130;-2.040;2023-12-20T03:20:02;19.10;51.20
61398;DHT22;47267;48.130;-2.040;2023-12-20T03:22:27;19.10;51.20
61398;DHT22;47267;48.130;-2.040;2023-12-20T03:24:53;19.10;51.20
61398;DHT22;47267;48.130;-2.040;2023-12-20T03:27:19;19.10;51.20
61398;DHT22;47267;48.130;-2.040;2023-12-20T03:29:44;19.10;51.20
61398;DHT22;47267;48.130;-2.040;2023-12-20T03:32:10;19.00;51.10
61398;DHT22;47267;48.130;-2.040;2023-12-20T03:34:36;19.10;51.20
61398;DHT22;47267;48.130;-2.040;2023-12-20T03:37:01;19.00;51.10
61398;DHT22;47267;48.130;-2.040;2023-12-20T03:39:27;19.10;51.20
61398;DHT22;47267;48.130;-2.040;2023-12-20T03:41:52;19.00;51.10
61398;DHT22;47267;48.130;-2.040;2023-12-20T03:44:18;19.10;51.20
61398;DHT22;47267;48.130;-2.040;2023-12-20T03:46:44;19.10;51.20
61398;DHT22;47267;48.130;-2.040;2023-12-20T03:49:11;19.00;51.10
61398;DHT22;47267;48.130;-2.040;2023-12-20T03:51:36;19.10;51.20
61398;DHT22;47267;48.130;-2.040;2023-12-20T03:54:03;19.00;51.70
61398;DHT22;47267;48.130;-2.040;2023-12-20T03:56:28;19.00;51.10
61398;DHT22;47267;48.130;-2.040;2023-12-20T03:58:54;19.10;51.20
61398;DHT22;47267;48.130;-2.040;2023-12-20T04:01:20;19.00;51.10
61398;DHT22;47267;48.130;-2.040;2023-12-20T04:03:45;19.10;51.20
61398;DHT22;47267;48.130;-2.040;2023-12-20T04:06:17;19.00;51.10
61398;DHT22;47267;48.130;-2.040;2023-12-20T04:08:43;19.00;51.10
61398;DHT22;47267;48.130;-2.040;2023-12-20T04:11:08;19.00;51.10
61398;DHT22;47267;48.130;-2.040;2023-12-20T04:13:34;19.00;51.10
61398;DHT22;47267;48.130;-2.040;2023-12-20T04:16:00;19.00;51.10
61398;DHT22;47267;48.130;-2.040;2023-12-20T04:18:25;19.00;51.10
61398;DHT22;47267;48.130;-2.040;2023-12-20T04:20:51;19.00;51.10
61398;DHT22;47267;48.130;-2.040;2023-12-20T04:23:17;19.00;51.10
61398;DHT22;47267;48.130;-2.040;2023-12-20T04:25:42;19.00;51.10
61398;DHT22;47267;48.130;-2.040;2023-12-20T04:28:08;19.00;51.10
61398;DHT22;47267;48.130;-2.040;2023-12-20T04:30:33;19.00;51.00
61398;DHT22;47267;48.130;-2.040;2023-12-20T04:32:59;18.90;51.00
61398;DHT22;47267;48.130;-2.040;2023-12-20T04:35:25;19.00;51.10
61398;DHT22;47267;48.130;-2.040;2023-12-20T04:37:51;18.90;51.00
61398;DHT22;47267;48.130;-2.040;2023-12-20T04:40:17;18.90;51.00
61398;DHT22;47267;48.130;-2.040;2023-12-20T04:42:42;18.90;51.00
61398;DHT22;47267;48.130;-2.040;2023-12-20T04:45:08;18.90;51.00
61398;DHT22;47267;48.130;-2.040;2023-12-20T04:47:34;18.90;51.00
61398;DHT22;47267;48.130;-2.040;2023-12-20T04:50:00;18.90;51.00
61398;DHT22;47267;48.130;-2.040;2023-12-20T04:52:25;18.90;51.00
61398;DHT22;47267;48.130;-2.040;2023-12-20T04:54:51;18.90;51.00
61398;DHT22;47267;48.130;-2.040;2023-12-20T04:57:17;18.90;51.00
61398;DHT22;47267;48.130;-2.040;2023-12-20T04:59:43;18.90;51.00
61398;DHT22;47267;48.130;-2.040;2023-12-20T05:02:08;18.90;51.00
61398;DHT22;47267;48.130;-2.040;2023-12-20T05:04:34;18.90;51.00
61398;DHT22;47267;48.130;-2.040;2023-12-20T05:07:00;18.90;51.00
61398;DHT22;47267;48.130;-2.040;2023-12-20T05:09:26;18.90;51.00
61398;DHT22;47267;48.130;-2.040;2023-12-20T05:11:51;18.80;50.90
61398;DHT22;47267;48.130;-2.040;2023-12-20T05:14:17;18.80;50.90
61398;DHT22;47267;48.130;-2.040;2023-12-20T05:16:43;18.80;50.90
61398;DHT22;47267;48.130;-2.040;2023-12-20T05:19:08;18.80;50.90
61398;DHT22;47267;48.130;-2.040;2023-12-20T05:21:34;18.80;50.90
61398;DHT22;47267;48.130;-2.040;2023-12-20T05:24:00;18.80;50.90
61398;DHT22;47267;48.130;-2.040;2023-12-20T05:26:26;18.80;50.90
61398;DHT22;47267;48.130;-2.040;2023-12-20T05:28:51;18.80;50.90
61398;DHT22;47267;48.130;-2.040;2023-12-20T05:31:18;18.80;50.90
61398;DHT22;47267;48.130;-2.040;2023-12-20T05:33:43;18.80;50.90
61398;DHT22;47267;48.130;-2.040;2023-12-20T05:36:09;18.80;50.90
61398;DHT22;47267;48.130;-2.040;2023-12-20T05:38:37;18.80;50.90
61398;DHT22;47267;48.130;-2.040;2023-12-20T05:41:02;18.80;50.90
61398;DHT22;47267;48.130;-2.040;2023-12-20T05:43:29;18.80;50.80
61398;DHT22;47267;48.130;-2.040;2023-12-20T05:45:54;18.80;50.90
61398;DHT22;47267;48.130;-2.040;2023-12-20T05:48:20;18.80;50.80
61398;DHT22;47267;48.130;-2.040;2023-12-20T05:50:46;18.80;50.80
61398;DHT22;47267;48.130;-2.040;2023-12-20T05:53:11;18.80;50.80
61398;DHT22;47267;48.130;-2.040;2023-12-20T05:55:37;18.70;50.80
61398;DHT22;47267;48.130;-2.040;2023-12-20T05:58:03;18.80;50.80
61398;DHT22;47267;48.130;-2.040;2023-12-20T06:00:29;18.80;50.90
61398;DHT22;47267;48.130;-2.040;2023-12-20T06:02:54;18.70;50.80
61398;DHT22;47267;48.130;-2.040;2023-12-20T06:05:20;18.70;50.80
61398;DHT22;47267;48.130;-2.040;2023-12-20T06:07:45;18.70;50.80
61398;DHT22;47267;48.130;-2.040;2023-12-20T06:10:13;18.70;50.80
61398;DHT22;47267;48.130;-2.040;2023-12-20T06:12:39;18.70;50.80
61398;DHT22;47267;48.130;-2.040;2023-12-20T06:15:05;18.70;50.80
61398;DHT22;47267;48.130;-2.040;2023-12-20T06:17:31;18.70;50.80
61398;DHT22;47267;48.130;-2.040;2023-12-20T06:19:57;18.70;50.80
61398;DHT22;47267;48.130;-2.040;2023-12-20T06:22:23;18.70;50.80
61398;DHT22;47267;48.130;-2.040;2023-12-20T06:24:49;18.70;50.90
61398;DHT22;47267;48.130;-2.040;2023-12-20T06:27:14;18.70;50.90
61398;DHT22;47267;48.130;-2.040;2023-12-20T06:29:40;18.70;51.20
61398;DHT22;47267;48.130;-2.040;2023-12-20T06:32:06;18.70;50.90
61398;DHT22;47267;48.130;-2.040;2023-12-20T06:34:32;18.70;51.00
61398;DHT22;47267;48.130;-2.040;2023-12-20T06:36:58;18.70;51.00
61398;DHT22;47267;48.130;-2.040;2023-12-20T06:39:23;18.70;51.10
61398;DHT22;47267;48.130;-2.040;2023-12-20T06:41:49;18.70;51.10
61398;DHT22;47267;48.130;-2.040;2023-12-20T06:44:15;18.60;51.10
61398;DHT22;47267;48.130;-2.040;2023-12-20T06:46:40;18.70;51.20
61398;DHT22;47267;48.130;-2.040;2023-12-20T06:49:06;18.70;51.30
61398;DHT22;47267;48.130;-2.040;2023-12-20T06:51:32;18.70;51.40
61398;DHT22;47267;48.130;-2.040;2023-12-20T06:53:57;18.70;51.40
61398;DHT22;47267;48.130;-2.040;2023-12-20T06:56:23;18.70;51.40
61398;DHT22;47267;48.130;-2.040;2023-12-20T06:58:49;18.70;51.50
61398;DHT22;47267;48.130;-2.040;2023-12-20T07:01:15;18.70;51.50
61398;DHT22;47267;48.130;-2.040;2023-12-20T07:03:41;18.60;51.50
61398;DHT22;47267;48.130;-2.040;2023-12-20T07:06:08;18.70;51.70
61398;DHT22;47267;48.130;-2.040;2023-12-20T07:08:34;18.70;51.70
61398;DHT22;47267;48.130;-2.040;2023-12-20T07:10:59;18.70;51.70
61398;DHT22;47267;48.130;-2.040;2023-12-20T07:13:25;18.70;51.80
61398;DHT22;47267;48.130;-2.040;2023-12-20T07:15:51;18.70;51.90
61398;DHT22;47267;48.130;-2.040;2023-12-20T07:18:16;18.70;51.90
61398;DHT22;47267;48.130;-2.040;2023-12-20T07:20:42;18.70;51.90
61398;DHT22;47267;48.130;-2.040;2023-12-20T07:23:08;18.70;52.00
61398;DHT22;47267;48.130;-2.040;2023-12-20T07:25:34;18.70;52.00
61398;DHT22;47267;48.130;-2.040;2023-12-20T07:28:00;18.70;52.00
61398;DHT22;47267;48.130;-2.040;2023-12-20T07:30:26;18.70;52.10
61398;DHT22;47267;48.130;-2.040;2023-12-20T07:32:51;18.70;52.10
61398;DHT22;47267;48.130;-2.040;2023-12-20T07:35:18;18.70;52.10
61398;DHT22;47267;48.130;-2.040;2023-12-20T07:37:44;18.70;52.20
61398;DHT22;47267;48.130;-2.040;2023-12-20T07:40:10;18.70;52.10
61398;DHT22;47267;48.130;-2.040;2023-12-20T07:42:36;18.70;52.40
61398;DHT22;47267;48.130;-2.040;2023-12-20T07:45:02;18.70;52.20
61398;DHT22;47267;48.130;-2.040;2023-12-20T07:47:28;18.70;52.20
61398;DHT22;47267;48.130;-2.040;2023-12-20T07:49:53;18.70;52.20
61398;DHT22;47267;48.130;-2.040;2023-12-20T07:52:19;18.70;52.30
61398;DHT22;47267;48.130;-2.040;2023-12-20T07:54:45;18.70;52.20
61398;DHT22;47267;48.130;-2.040;2023-12-20T07:57:11;18.70;52.20
61398;DHT22;47267;48.130;-2.040;2023-12-20T07:59:37;18.70;52.30
61398;DHT22;47267;48.130;-2.040;2023-12-20T08:02:03;18.70;52.30
61398;DHT22;47267;48.130;-2.040;2023-12-20T08:04:29;18.70;52.50
61398;DHT22;47267;48.130;-2.040;2023-12-20T08:06:54;18.70;52.30
61398;DHT22;47267;48.130;-2.040;2023-12-20T08:09:20;18.70;52.20
61398;DHT22;47267;48.130;-2.040;2023-12-20T08:11:47;18.70;52.30
61398;DHT22;47267;48.130;-2.040;2023-12-20T08:14:13;18.70;52.30
61398;DHT22;47267;48.130;-2.040;2023-12-20T08:16:39;18.70;52.30
61398;DHT22;47267;48.130;-2.040;2023-12-20T08:19:05;18.70;52.30
61398;DHT22;47267;48.130;-2.040;2023-12-20T08:21:30;18.70;52.20
61398;DHT22;47267;48.130;-2.040;2023-12-20T08:23:56;18.70;52.30
61398;DHT22;47267;48.130;-2.040;2023-12-20T08:26:21;18.70;52.30
61398;DHT22;47267;48.130;-2.040;2023-12-20T08:28:49;18.80;52.30
61398;DHT22;47267;48.130;-2.040;2023-12-20T08:31:15;18.70;52.30
61398;DHT22;47267;48.130;-2.040;2023-12-20T08:33:46;18.70;52.30
61398;DHT22;47267;48.130;-2.040;2023-12-20T08:36:12;18.70;52.30
61398;DHT22;47267;48.130;-2.040;2023-12-20T08:38:38;18.70;52.20
61398;DHT22;47267;48.130;-2.040;2023-12-20T08:41:05;18.70;52.30
61398;DHT22;47267;48.130;-2.040;2023-12-20T08:43:31;18.70;52.30
61398;DHT22;47267;48.130;-2.040;2023-12-20T08:45:57;18.70;52.20
61398;DHT22;47267;48.130;-2.040;2023-12-20T08:48:23;18.70;52.20
61398;DHT22;47267;48.130;-2.040;2023-12-20T08:50:49;18.80;52.30
61398;DHT22;47267;48.130;-2.040;2023-12-20T08:53:17;18.70;52.20
61398;DHT22;47267;48.130;-2.040;2023-12-20T08:55:43;18.80;52.30
61398;DHT22;47267;48.130;-2.040;2023-12-20T08:58:09;18.80;52.30
61398;DHT22;47267;48.130;-2.040;2023-12-20T09:00:35;18.70;52.20
61398;DHT22;47267;48.130;-2.040;2023-12-20T09:03:03;18.80;52.30
61398;DHT22;47267;48.130;-2.040;2023-12-20T09:05:29;18.70;52.20
61398;DHT22;47267;48.130;-2.040;2023-12-20T09:07:55;18.70;52.20
61398;DHT22;47267;48.130;-2.040;2023-12-20T09:10:21;18.70;52.20
61398;DHT22;47267;48.130;-2.040;2023-12-20T09:12:53;18.80;52.20
61398;DHT22;47267;48.130;-2.040;2023-12-20T09:15:26;18.80;52.20
61398;DHT22;47267;48.130;-2.040;2023-12-20T09:17:53;18.70;52.20
61398;DHT22;47267;48.130;-2.040;2023-12-20T09:20:19;18.80;52.20
61398;DHT22;47267;48.130;-2.040;2023-12-20T09:22:45;18.80;52.20
61398;DHT22;47267;48.130;-2.040;2023-12-20T09:25:11;18.70;52.20
61398;DHT22;47267;48.130;-2.040;2023-12-20T09:27:38;18.80;52.20
61398;DHT22;47267;48.130;-2.040;2023-12-20T09:30:04;18.80;52.10
61398;DHT22;47267;48.130;-2.040;2023-12-20T09:32:31;18.80;52.10
61398;DHT22;47267;48.130;-2.040;2023-12-20T09:34:56;18.80;52.10
61398;DHT22;47267;48.130;-2.040;2023-12-20T09:37:25;18.80;52.10
61398;DHT22;47267;48.130;-2.040;2023-12-20T09:39:51;18.80;52.10
61398;DHT22;47267;48.130;-2.040;2023-12-20T09:42:24;18.80;52.10
61398;DHT22;47267;48.130;-2.040;2023-12-20T09:44:50;18.80;52.10
61398;DHT22;47267;48.130;-2.040;2023-12-20T09:47:19;18.80;52.10
61398;DHT22;47267;48.130;-2.040;2023-12-20T09:49:46;18.80;52.10
61398;DHT22;47267;48.130;-2.040;2023-12-20T09:52:13;18.80;52.10
61398;DHT22;47267;48.130;-2.040;2023-12-20T09:54:39;18.80;52.10
61398;DHT22;47267;48.130;-2.040;2023-12-20T09:57:06;18.80;52.10
61398;DHT22;47267;48.130;-2.040;2023-12-20T09:59:32;18.80;52.10
61398;DHT22;47267;48.130;-2.040;2023-12-20T10:01:58;18.80;52.10
61398;DHT22;47267;48.130;-2.040;2023-12-20T10:04:27;18.80;52.00
61398;DHT22;47267;48.130;-2.040;2023-12-20T10:06:53;18.80;52.10
61398;DHT22;47267;48.130;-2.040;2023-12-20T10:09:18;18.80;52.10
61398;DHT22;47267;48.130;-2.040;2023-12-20T10:11:44;18.80;52.00
61398;DHT22;47267;48.130;-2.040;2023-12-20T10:14:10;18.80;52.10
61398;DHT22;47267;48.130;-2.040;2023-12-20T10:16:36;18.80;52.00
61398;DHT22;47267;48.130;-2.040;2023-12-20T10:19:02;18.80;52.00
61398;DHT22;47267;48.130;-2.040;2023-12-20T10:21:27;18.80;52.00
61398;DHT22;47267;48.130;-2.040;2023-12-20T10:23:54;18.80;52.00
61398;DHT22;47267;48.130;-2.040;2023-12-20T10:26:25;18.80;52.00
61398;DHT22;47267;48.130;-2.040;2023-12-20T10:28:55;18.80;52.00
61398;DHT22;47267;48.130;-2.040;2023-12-20T10:31:33;18.80;51.90
61398;DHT22;47267;48.130;-2.040;2023-12-20T10:34:01;18.80;51.90
61398;DHT22;47267;48.130;-2.040;2023-12-20T10:36:29;18.80;51.90
61398;DHT22;47267;48.130;-2.040;2023-12-20T10:38:56;18.80;51.90
61398;DHT22;47267;48.130;-2.040;2023-12-20T10:41:30;18.80;51.90
61398;DHT22;47267;48.130;-2.040;2023-12-20T10:44:01;18.80;51.90
61398;DHT22;47267;48.130;-2.040;2023-12-20T10:46:27;18.80;52.00
61398;DHT22;47267;48.130;-2.040;2023-12-20T10:48:56;18.90;52.00
61398;DHT22;47267;48.130;-2.040;2023-12-20T10:51:23;18.90;51.90
61398;DHT22;47267;48.130;-2.040;2023-12-20T10:53:52;18.90;52.00
61398;DHT22;47267;48.130;-2.040;2023-12-20T10:56:19;18.80;51.90
61398;DHT22;47267;48.130;-2.040;2023-12-20T10:58:45;18.80;51.90
61398;DHT22;47267;48.130;-2.040;2023-12-20T11:01:19;18.80;51.90
61398;DHT22;47267;48.130;-2.040;2023-12-20T11:03:49;18.80;51.90
61398;DHT22;47267;48.130;-2.040;2023-12-20T11:06:29;18.80;51.90
61398;DHT22;47267;48.130;-2.040;2023-12-20T11:12:13;18.80;51.90
61398;DHT22;47267;48.130;-2.040;2023-12-20T11:17:09;18.90;51.90
61398;DHT22;47267;48.130;-2.040;2023-12-20T11:19:37;18.90;51.90
61398;DHT22;47267;48.130;-2.040;2023-12-20T11:22:04;18.90;51.90
61398;DHT22;47267;48.130;-2.040;2023-12-20T11:24:31;18.90;51.90
61398;DHT22;47267;48.130;-2.040;2023-12-20T11:26:59;18.90;51.90
61398;DHT22;47267;48.130;-2.040;2023-12-20T11:29:32;18.90;51.90
61398;DHT22;47267;48.130;-2.040;2023-12-20T11:32:47;18.90;51.90
61398;DHT22;47267;48.130;-2.040;2023-12-20T11:34:48;18.90;51.90
61398;DHT22;47267;48.130;-2.040;2023-12-20T11:37:15;18.90;51.90
61398;DHT22;47267;48.130;-2.040;2023-12-20T11:39:40;18.90;51.90
61398;DHT22;47267;48.130;-2.040;2023-12-20T11:42:10;18.90;51.90
61398;DHT22;47267;48.130;-2.040;2023-12-20T11:44:36;18.90;51.90
61398;DHT22;47267;48.130;-2.040;2023-12-20T11:47:02;18.90;51.90
61398;DHT22;47267;48.130;-2.040;2023-12-20T11:49:28;19.00;51.90
61398;DHT22;47267;48.130;-2.040;2023-12-20T11:51:56;18.90;51.90
61398;DHT22;47267;48.130;-2.040;2023-12-20T11:54:22;19.00;52.00
61398;DHT22;47267;48.130;-2.040;2023-12-20T11:56:48;19.00;51.90
61398;DHT22;47267;48.130;-2.040;2023-12-20T11:59:14;19.00;51.90
61398;DHT22;47267;48.130;-2.040;2023-12-20T12:01:46;19.00;52.00
61398;DHT22;47267;48.130;-2.040;2023-12-20T12:04:13;19.00;52.00
61398;DHT22;47267;48.130;-2.040;2023-12-20T12:06:39;19.00;52.00
61398;DHT22;47267;48.130;-2.040;2023-12-20T12:09:05;19.00;52.00
61398;DHT22;47267;48.130;-2.040;2023-12-20T12:11:30;19.00;51.90
61398;DHT22;47267;48.130;-2.040;2023-12-20T12:13:56;19.00;51.90
61398;DHT22;47267;48.130;-2.040;2023-12-20T12:16:22;19.00;51.90
61398;DHT22;47267;48.130;-2.040;2023-12-20T12:18:56;19.00;52.00
61398;DHT22;47267;48.130;-2.040;2023-12-20T12:21:21;19.00;52.00
61398;DHT22;47267;48.130;-2.040;2023-12-20T12:23:48;19.00;52.00
61398;DHT22;47267;48.130;-2.040;2023-12-20T12:26:13;19.00;52.00
61398;DHT22;47267;48.130;-2.040;2023-12-20T12:28:43;19.00;52.00
61398;DHT22;47267;48.130;-2.040;2023-12-20T12:31:13;19.00;52.00
61398;DHT22;47267;48.130;-2.040;2023-12-20T12:33:41;19.00;52.00
61398;DHT22;47267;48.130;-2.040;2023-12-20T12:36:07;19.00;52.00
61398;DHT22;47267;48.130;-2.040;2023-12-20T12:38:33;19.00;52.00
61398;DHT22;47267;48.130;-2.040;2023-12-20T12:41:00;19.10;52.00
61398;DHT22;47267;48.130;-2.040;2023-12-20T12:43:26;19.10;52.10
61398;DHT22;47267;48.130;-2.040;2023-12-20T12:45:53;19.10;52.00
61398;DHT22;47267;48.130;-2.040;2023-12-20T12:48:19;19.10;52.00
61398;DHT22;47267;48.130;-2.040;2023-12-20T12:50:48;19.10;52.00
61398;DHT22;47267;48.130;-2.040;2023-12-20T12:53:13;19.10;52.00
61398;DHT22;47267;48.130;-2.040;2023-12-20T12:55:39;19.10;52.00
61398;DHT22;47267;48.130;-2.040;2023-12-20T12:58:05;19.10;52.00
61398;DHT22;47267;48.130;-2.040;2023-12-20T13:00:30;19.10;52.00
61398;DHT22;47267;48.130;-2.040;2023-12-20T13:02:56;19.10;52.00
61398;DHT22;47267;48.130;-2.040;2023-12-20T13:05:22;19.10;52.00
61398;DHT22;47267;48.130;-2.040;2023-12-20T13:07:47;19.20;52.00
61398;DHT22;47267;48.130;-2.040;2023-12-20T13:10:13;19.20;52.00
61398;DHT22;47267;48.130;-2.040;2023-12-20T13:12:42;19.20;52.00
61398;DHT22;47267;48.130;-2.040;2023-12-20T13:15:08;19.20;52.00
61398;DHT22;47267;48.130;-2.040;2023-12-20T13:17:34;19.20;52.00
61398;DHT22;47267;48.130;-2.040;2023-12-20T13:20:00;19.20;52.00
61398;DHT22;47267;48.130;-2.040;2023-12-20T13:22:26;19.20;52.00
61398;DHT22;47267;48.130;-2.040;2023-12-20T13:24:52;19.20;52.00
61398;DHT22;47267;48.130;-2.040;2023-12-20T13:27:17;19.20;52.00
61398;DHT22;47267;48.130;-2.040;2023-12-20T13:29:43;19.20;52.00
61398;DHT22;47267;48.130;-2.040;2023-12-20T13:32:09;19.20;52.00
61398;DHT22;47267;48.130;-2.040;2023-12-20T13:34:34;19.30;52.00
61398;DHT22;47267;48.130;-2.040;2023-12-20T13:37:00;19.30;52.00
61398;DHT22;47267;48.130;-2.040;2023-12-20T13:39:26;19.30;52.00
61398;DHT22;47267;48.130;-2.040;2023-12-20T13:41:51;19.30;52.00
61398;DHT22;47267;48.130;-2.040;2023-12-20T13:44:17;19.30;52.00
61398;DHT22;47267;48.130;-2.040;2023-12-20T13:46:43;19.30;52.00
61398;DHT22;47267;48.130;-2.040;2023-12-20T13:49:08;19.30;52.00
61398;DHT22;47267;48.130;-2.040;2023-12-20T13:51:34;19.40;52.00
61398;DHT22;47267;48.130;-2.040;2023-12-20T13:54:00;19.40;52.10
61398;DHT22;47267;48.130;-2.040;2023-12-20T13:56:26;19.40;52.00
61398;DHT22;47267;48.130;-2.040;2023-12-20T13:58:51;19.40;52.00
61398;DHT22;47267;48.130;-2.040;2023-12-20T14:01:17;19.40;52.00
61398;DHT22;47267;48.130;-2.040;2023-12-20T14:03:43;19.40;52.00
61398;DHT22;47267;48.130;-2.040;2023-12-20T14:06:09;19.50;52.10
61398;DHT22;47267;48.130;-2.040;2023-12-20T14:08:34;19.50;52.10
61398;DHT22;47267;48.130;-2.040;2023-12-20T14:11:01;19.40;52.00
61398;DHT22;47267;48.130;-2.040;2023-12-20T14:13:27;19.50;52.10
61398;DHT22;47267;48.130;-2.040;2023-12-20T14:15:52;19.50;52.10
61398;DHT22;47267;48.130;-2.040;2023-12-20T14:18:20;19.50;52.00
61398;DHT22;47267;48.130;-2.040;2023-12-20T14:20:48;19.50;52.00
61398;DHT22;47267;48.130;-2.040;2023-12-20T14:23:13;19.50;52.10
61398;DHT22;47267;48.130;-2.040;2023-12-20T14:25:42;19.50;52.00
61398;DHT22;47267;48.130;-2.040;2023-12-20T14:28:07;19.60;52.10
61398;DHT22;47267;48.130;-2.040;2023-12-20T14:30:33;19.60;52.10
61398;DHT22;47267;48.130;-2.040;2023-12-20T14:33:00;19.60;52.10
61398;DHT22;47267;48.130;-2.040;2023-12-20T14:35:26;19.60;52.10
61398;DHT22;47267;48.130;-2.040;2023-12-20T14:37:51;19.60;52.00
61398;DHT22;47267;48.130;-2.040;2023-12-20T14:40:18;19.60;52.10
61398;DHT22;47267;48.130;-2.040;2023-12-20T14:42:44;19.60;52.00
61398;DHT22;47267;48.130;-2.040;2023-12-20T14:45:10;19.60;52.00
61398;DHT22;47267;48.130;-2.040;2023-12-20T14:47:36;19.60;52.00
61398;DHT22;47267;48.130;-2.040;2023-12-20T14:50:06;19.70;52.10
61398;DHT22;47267;48.130;-2.040;2023-12-20T14:52:32;19.70;52.10
61398;DHT22;47267;48.130;-2.040;2023-12-20T14:54:59;19.70;52.10
61398;DHT22;47267;48.130;-2.040;2023-12-20T14:57:25;19.70;52.10
61398;DHT22;47267;48.130;-2.040;2023-12-20T14:59:52;19.70;52.10
61398;DHT22;47267;48.130;-2.040;2023-12-20T15:02:17;19.70;52.10
61398;DHT22;47267;48.130;-2.040;2023-12-20T15:04:43;19.70;52.10
61398;DHT22;47267;48.130;-2.040;2023-12-20T15:07:10;19.70;52.00
61398;DHT22;47267;48.130;-2.040;2023-12-20T15:09:36;19.80;52.10
61398;DHT22;47267;48.130;-2.040;2023-12-20T15:12:01;19.70;52.00
61398;DHT22;47267;48.130;-2.040;2023-12-20T15:14:27;19.80;52.10